createdAt,value
2019-03-03T00:02:40.301Z,4.47
2019-03-03T00:07:36.159Z,6.17
2019-03-03T00:12:32.548Z,5.00
2019-03-03T00:18:47.047Z,3.77
2019-03-03T00:45:22.804Z,4.83
2019-03-03T00:50:22.402Z,6.17
2019-03-03T00:55:28.394Z,5.67
2019-03-03T01:00:43.723Z,3.53
2019-03-03T01:05:49.135Z,5.27
2019-03-03T01:11:09.836Z,4.67
2019-03-03T01:16:18.967Z,4.93
2019-03-03T01:21:24.985Z,3.73
2019-03-03T01:26:22.678Z,3.60
2019-03-03T01:31:18.752Z,5.23
2019-03-03T01:36:14.642Z,4.07
2019-03-03T01:41:10.402Z,5.53
2019-03-03T01:46:06.270Z,4.97
2019-03-03T01:51:02.203Z,4.87
2019-03-03T01:55:58.107Z,3.93
2019-03-03T02:00:54.340Z,5.43
2019-03-03T02:05:50.227Z,4.20
2019-03-03T02:10:46.147Z,4.93
2019-03-03T02:15:42.252Z,4.97
2019-03-03T02:20:38.082Z,5.70
2019-03-03T02:25:34.104Z,4.37
2019-03-03T02:30:30.164Z,5.10
2019-03-03T02:35:26.202Z,5.30
2019-03-03T02:40:22.092Z,4.50
2019-03-03T02:45:19.799Z,4.47
2019-03-03T02:50:16.385Z,3.50
2019-03-03T02:55:16.313Z,5.60
2019-03-03T03:00:23.763Z,5.20
2019-03-03T03:05:31.931Z,5.20
2019-03-03T03:11:02.385Z,3.93
2019-03-03T03:16:20.029Z,4.30
2019-03-03T03:21:40.825Z,5.70
2019-03-03T03:26:55.531Z,4.30
2019-03-03T03:32:07.245Z,4.57
2019-03-03T03:37:17.418Z,5.10
2019-03-03T03:42:38.357Z,5.83
2019-03-03T03:47:43.832Z,5.00
2019-03-03T03:53:04.408Z,5.63
2019-03-03T03:58:10.893Z,5.40
2019-03-03T04:03:31.226Z,5.57
2019-03-03T04:08:48.964Z,3.43
2019-03-03T04:14:02.389Z,3.03
2019-03-03T04:19:19.678Z,4.33
2019-03-03T04:24:35.901Z,2.93
2019-03-03T04:29:42.129Z,3.47
2019-03-03T04:34:55.422Z,2.97
2019-03-03T04:40:17.563Z,6.00
2019-03-03T04:45:21.672Z,3.13
2019-03-03T04:50:41.980Z,3.67
2019-03-03T04:55:56.684Z,2.53
2019-03-03T05:01:10.040Z,4.07
2019-03-03T05:06:27.354Z,2.60
2019-03-03T05:12:55.734Z,4.17
2019-03-03T05:17:57.034Z,3.70
2019-03-03T05:22:52.918Z,3.87
2019-03-03T05:27:48.858Z,2.43
2019-03-03T05:32:44.645Z,3.70
2019-03-03T05:37:40.480Z,3.03
2019-03-03T05:42:36.229Z,5.50
2019-03-03T05:53:08.373Z,3.23
2019-03-03T05:58:04.340Z,4.23
2019-03-03T06:03:00.408Z,4.83
2019-03-03T06:07:56.225Z,3.63
2019-03-03T06:13:40.131Z,4.93
2019-03-03T06:18:42.565Z,2.97
2019-03-03T06:23:48.072Z,2.87
2019-03-03T06:28:43.945Z,2.93
2019-03-03T06:33:39.693Z,2.63
2019-03-03T06:38:35.510Z,2.80
2019-03-03T06:43:31.351Z,3.37
2019-03-03T06:48:27.134Z,3.17
2019-03-03T06:53:23.026Z,5.20
2019-03-03T06:58:19.157Z,3.03
2019-03-03T07:03:15.116Z,3.23
2019-03-03T07:08:10.976Z,2.63
2019-03-03T07:13:06.941Z,4.43
2019-03-03T07:18:02.833Z,4.10
2019-03-03T07:22:58.922Z,2.27
2019-03-03T07:27:54.738Z,5.67
2019-03-03T07:33:10.217Z,3.33
2019-03-03T07:38:06.066Z,3.27
2019-03-03T07:43:01.844Z,3.70
2019-03-03T07:47:57.813Z,4.30
2019-03-03T07:52:53.651Z,4.40
2019-03-03T07:57:51.820Z,3.67
2019-03-03T08:02:53.709Z,4.97
2019-03-03T08:07:51.134Z,3.67
2019-03-03T08:12:47.103Z,2.57
2019-03-03T08:17:43.028Z,4.50
2019-03-03T08:22:39.020Z,4.17
2019-03-03T08:27:35.095Z,6.67
2019-03-03T08:32:32.534Z,5.93
2019-03-03T08:37:28.578Z,5.77
2019-03-03T08:42:52.598Z,6.03
2019-03-03T08:47:58.233Z,3.97
2019-03-03T08:53:19.577Z,4.27
2019-03-03T08:58:26.494Z,3.73
2019-03-03T09:03:51.276Z,3.93
2019-03-03T09:09:10.606Z,7.27
2019-03-03T09:14:19.817Z,4.63
2019-03-03T09:19:26.052Z,5.17
2019-03-03T09:24:47.067Z,6.07
2019-03-03T09:30:01.634Z,5.47
2019-03-03T09:35:08.534Z,4.43
2019-03-03T09:40:22.464Z,3.67
2019-03-03T09:45:36.122Z,4.37
2019-03-03T09:50:57.009Z,3.53
2019-03-03T09:56:12.237Z,4.53
2019-03-03T10:01:36.155Z,2.80
2019-03-03T10:06:47.470Z,3.23
2019-03-03T10:11:57.986Z,2.57
2019-03-03T10:17:06.879Z,2.60
2019-03-03T10:22:39.667Z,6.43
2019-03-03T10:28:00.093Z,4.67
2019-03-03T10:33:18.412Z,3.73
2019-03-03T10:38:45.775Z,4.23
2019-03-03T10:43:48.483Z,2.63
2019-03-03T10:48:58.703Z,5.20
2019-03-03T10:54:19.652Z,4.27
2019-03-03T10:59:24.601Z,4.73
2019-03-03T11:04:42.404Z,4.70
2019-03-03T11:09:51.413Z,3.80
2019-03-03T11:15:18.692Z,3.23
2019-03-03T11:20:38.368Z,3.43
2019-03-03T11:26:05.566Z,2.97
2019-03-03T11:31:19.341Z,2.50
2019-03-03T11:36:40.632Z,5.37
2019-03-03T11:41:54.593Z,3.43
2019-03-03T11:47:09.451Z,4.87
2019-03-03T11:52:26.930Z,6.50
2019-03-03T11:57:46.137Z,3.43
2019-03-03T12:03:04.490Z,5.20
2019-03-03T12:08:24.519Z,6.93
2019-03-03T12:13:29.108Z,4.20
2019-03-03T12:18:35.983Z,4.47
2019-03-03T12:23:44.569Z,4.20
2019-03-03T12:29:11.727Z,5.90
2019-03-03T12:34:29.288Z,4.70
2019-03-03T12:39:32.319Z,3.37
2019-03-03T12:44:56.038Z,5.83
2019-03-03T12:50:09.339Z,3.10
2019-03-03T12:55:22.914Z,4.27
2019-03-03T13:00:35.021Z,3.10
2019-03-03T13:05:49.739Z,3.87
2019-03-03T13:10:54.731Z,2.40
2019-03-03T13:16:27.565Z,1.77
2019-03-03T13:21:39.555Z,3.87
2019-03-03T13:26:52.819Z,5.00
2019-03-03T13:32:16.411Z,3.87
2019-03-03T13:37:24.871Z,2.83
2019-03-03T13:42:39.091Z,1.80
2019-03-03T13:47:35.048Z,4.33
2019-03-03T13:52:30.865Z,5.87
2019-03-03T13:57:56.443Z,5.23
2019-03-03T14:02:52.524Z,2.67
2019-03-03T14:07:55.049Z,4.53
2019-03-03T14:12:50.909Z,1.73
2019-03-03T14:17:46.928Z,3.87
2019-03-03T14:22:42.741Z,1.53
2019-03-03T14:27:38.587Z,3.03
2019-03-03T14:32:34.383Z,2.20
2019-03-03T14:37:30.537Z,2.23
2019-03-03T14:42:26.403Z,3.87
2019-03-03T14:47:22.413Z,6.13
2019-03-03T14:52:18.281Z,1.77
2019-03-03T14:57:15.211Z,1.77
2019-03-03T15:02:11.131Z,2.60
2019-03-03T15:07:08.347Z,4.37
2019-03-03T15:12:06.764Z,1.60
2019-03-03T15:17:07.306Z,2.43
2019-03-03T15:22:17.615Z,3.83
2019-03-03T15:27:14.760Z,3.30
2019-03-03T15:32:10.546Z,1.10
2019-03-03T15:37:08.103Z,0.97
2019-03-03T15:42:05.800Z,2.50
2019-03-03T15:47:01.792Z,1.07
2019-03-03T15:51:57.661Z,1.47
2019-03-03T15:56:53.561Z,0.93
2019-03-03T16:01:49.342Z,1.87
2019-03-03T16:06:45.112Z,2.03
2019-03-03T16:11:40.893Z,0.70
2019-03-03T16:16:37.433Z,1.07
2019-03-03T16:21:33.265Z,1.67
2019-03-03T16:26:29.121Z,0.77
2019-03-03T16:31:26.882Z,1.27
2019-03-03T16:36:23.010Z,1.43
2019-03-03T16:41:18.967Z,1.53
2019-03-03T16:46:15.805Z,1.63
2019-03-03T16:51:11.736Z,1.53
2019-03-03T16:56:07.699Z,1.20
2019-03-03T17:01:03.548Z,1.27
2019-03-03T17:05:59.406Z,1.10
2019-03-03T17:10:55.292Z,4.40
2019-03-03T17:15:51.377Z,2.77
2019-03-03T17:20:47.288Z,17.13
2019-03-03T17:25:43.346Z,3.90
2019-03-03T17:30:39.290Z,58.37
2019-03-03T17:35:35.222Z,39.80
2019-03-03T17:40:30.978Z,31.47
2019-03-03T17:45:27.365Z,15.07
2019-03-03T17:50:23.670Z,11.40
2019-03-03T17:55:21.471Z,7.27
2019-03-03T18:00:21.276Z,7.23
2019-03-03T18:05:20.031Z,5.50
2019-03-03T18:10:16.093Z,3.03
2019-03-03T18:15:12.474Z,3.00
2019-03-03T18:20:10.766Z,5.73
2019-03-03T18:25:07.042Z,4.23
2019-03-03T18:30:02.938Z,13.60
2019-03-03T18:34:58.736Z,11.63
2019-03-03T18:39:54.686Z,11.30
2019-03-03T18:44:50.607Z,10.23
2019-03-03T18:49:46.526Z,14.20
2019-03-03T18:54:42.471Z,15.30
2019-03-03T18:59:38.505Z,15.03
2019-03-03T19:04:34.270Z,16.30
2019-03-03T19:09:30.196Z,17.30
2019-03-03T19:14:28.492Z,14.83
2019-03-03T19:19:23.692Z,17.60
2019-03-03T19:24:19.463Z,10.90
2019-03-03T19:29:15.230Z,10.13
2019-03-03T19:34:11.084Z,12.43
2019-03-03T19:39:07.791Z,11.80
2019-03-03T19:44:03.672Z,14.20
2019-03-03T19:48:59.487Z,13.70
2019-03-03T19:53:55.409Z,10.77
2019-03-03T19:58:51.406Z,10.97
2019-03-03T20:03:48.251Z,8.47
2019-03-03T20:08:44.144Z,7.67
2019-03-03T20:13:40.054Z,6.57
2019-03-03T20:18:35.953Z,6.00
2019-03-03T20:23:31.947Z,8.97
2019-03-03T20:28:29.204Z,8.07
2019-03-03T20:33:25.105Z,7.97
2019-03-03T20:38:20.925Z,6.23
2019-03-03T20:43:16.728Z,5.60
2019-03-03T20:48:13.207Z,6.50
2019-03-03T20:53:09.204Z,6.37
2019-03-03T20:58:05.055Z,5.47
2019-03-03T21:03:01.184Z,5.93
2019-03-03T21:07:57.081Z,6.07
2019-03-03T21:12:53.105Z,10.73
2019-03-03T21:17:49.076Z,7.80
2019-03-03T21:22:45.018Z,5.47
2019-03-03T21:27:42.003Z,4.33
2019-03-03T21:32:47.213Z,6.50
2019-03-03T21:37:43.028Z,4.87
2019-03-03T21:42:38.912Z,8.60
2019-03-03T21:47:34.800Z,7.47
2019-03-03T21:52:30.623Z,7.87
2019-03-03T21:57:26.620Z,6.97
2019-03-03T22:02:22.374Z,6.70
2019-03-03T22:07:18.146Z,5.07
2019-03-03T22:12:13.944Z,6.80
2019-03-03T22:17:09.755Z,5.03
2019-03-03T22:22:05.897Z,6.97
2019-03-03T22:27:01.713Z,5.17
2019-03-03T22:31:57.471Z,3.43
2019-03-03T22:36:53.213Z,3.63
2019-03-03T22:41:49.356Z,5.57
2019-03-03T22:46:45.134Z,4.00
2019-03-03T22:51:40.937Z,3.67
2019-03-03T22:56:36.672Z,4.03
2019-03-03T23:01:42.960Z,6.40
2019-03-03T23:06:48.766Z,4.50
2019-03-03T23:12:59.340Z,4.80
2019-03-03T23:18:58.516Z,3.77
2019-03-03T23:25:02.410Z,4.27
2019-03-03T23:29:58.152Z,3.93
2019-03-03T23:34:54.683Z,4.63
2019-03-03T23:39:50.504Z,2.93
2019-03-03T23:44:46.279Z,5.43
2019-03-03T23:49:42.076Z,2.60
2019-03-03T23:54:37.857Z,3.57
2019-03-03T23:59:33.790Z,3.47
